Time;durP1;ratioP1;P1;durP2;ratioP2;P2;SDS_P1;SDS_P2;PMS_P1;PMS_P2;Temp;Humidity;BMP_temperature;BMP_pressure;BME280_temperature;BME280_humidity;BME280_pressure;Samples;Min_cycle;Max_cycle;Signal;HPM_P1;HPM_P2
2022/01/05 00:02:20;;;;;;;9.02;5.70;;;4.20;1.00;;;4.13;78.11;99143.47;5014434;28;20764;-66
2022/01/05 00:04:49;;;;;;;9.52;4.30;;;4.20;1.00;;;4.18;78.09;99132.97;5014149;28;20174;-66
2022/01/05 00:07:18;;;;;;;6.72;4.50;;;4.20;1.00;;;4.09;78.79;99144.91;5014040;28;20186;-67
2022/01/05 00:09:46;;;;;;;9.60;4.72;;;4.20;22.40;;;4.14;77.79;99131.75;5014256;28;20232;-67
2022/01/05 00:12:14;;;;;;;5.50;3.67;;;4.20;46.40;;;4.11;77.93;99132.97;5014273;28;20214;-69
2022/01/05 00:14:42;;;;;;;6.85;4.72;;;4.20;21.70;;;4.14;78.55;99137.09;5014341;28;20174;-65
2022/01/05 00:17:11;;;;;;;7.10;4.45;;;4.20;41.00;;;4.11;78.66;99148.22;5014331;28;20614;-66
2022/01/05 00:19:40;;;;;;;9.27;5.38;;;4.20;99.90;;;4.12;78.57;99155.19;5014205;28;20193;-66
2022/01/05 00:22:09;;;;;;;10.43;4.32;;;4.20;99.90;;;4.10;78.74;99151.91;5013042;28;20182;-67
2022/01/05 00:24:37;;;;;;;7.82;3.95;;;4.10;99.90;;;4.05;78.80;99152.53;5014157;28;20265;-67
2022/01/05 00:27:06;;;;;;;6.15;4.60;;;4.10;99.90;;;4.08;78.58;99148.59;5014244;28;20764;-67
2022/01/05 00:29:34;;;;;;;6.55;3.55;;;4.10;99.90;;;3.99;79.03;99142.63;5014223;28;20190;-66
2022/01/05 00:32:04;;;;;;;7.72;4.40;;;4.10;99.90;;;4.08;78.60;99146.75;5013852;28;20194;-67
2022/01/05 00:34:33;;;;;;;7.97;4.85;;;4.10;99.90;;;4.07;78.43;99152.31;5013699;28;20184;-67
2022/01/05 00:37:03;;;;;;;5.13;3.30;;;4.10;99.90;;;4.02;78.66;99152.13;5013577;28;20647;-66
2022/01/05 00:39:32;;;;;;;8.27;3.78;;;4.10;99.90;;;4.01;79.00;99147.78;5013815;28;20205;-66
2022/01/05 00:42:01;;;;;;;9.52;4.38;;;4.10;99.90;;;4.11;78.53;99148.22;5014006;28;20266;-66
2022/01/05 00:44:30;;;;;;;15.30;4.53;;;4.10;99.90;;;4.04;79.29;99136.66;5014377;28;20182;-66
2022/01/05 00:46:58;;;;;;;8.10;3.60;;;4.10;99.90;;;4.03;78.81;99137.69;5014250;28;20547;-66
2022/01/05 00:49:26;;;;;;;6.65;3.85;;;4.10;99.90;;;4.01;78.85;99143.25;5014123;28;20182;-66
2022/01/05 00:51:55;;;;;;;6.20;3.25;;;4.10;99.90;;;3.97;78.96;99149.22;5014319;28;20539;-67
2022/01/05 00:54:24;;;;;;;4.38;3.17;;;4.00;99.90;;;4.03;78.30;99149.22;5014229;28;20193;-66
2022/01/05 00:56:53;;;;;;;8.55;2.90;;;4.10;99.90;;;4.03;78.08;99151.06;5013885;28;20624;-66
2022/01/05 00:59:21;;;;;;;9.30;3.53;;;4.10;99.90;;;4.02;78.67;99144.09;5013250;28;20244;-67
2022/01/05 01:01:49;;;;;;;8.30;3.22;;;4.10;99.90;;;4.04;78.43;99142.84;5013478;28;20193;-67
2022/01/05 01:04:18;;;;;;;9.35;3.30;;;4.10;99.90;;;4.05;78.00;99132.97;5013262;28;20178;-67
2022/01/05 01:06:46;;;;;;;6.53;2.97;;;4.10;99.90;;;4.10;78.29;99133.19;5013121;28;20248;-67
2022/01/05 01:09:14;;;;;;;7.70;3.15;;;4.10;99.90;;;4.07;78.54;99126.38;5013234;28;20241;-67
2022/01/05 01:11:44;;;;;;;9.02;3.03;;;4.10;99.90;;;4.11;78.08;99130.31;5013451;28;20716;-67
2022/01/05 01:14:12;;;;;;;8.27;2.60;;;4.10;99.90;;;4.19;78.63;99134.63;5013027;28;20240;-66
2022/01/05 01:16:40;;;;;;;5.68;2.75;;;4.10;99.90;;;4.30;77.43;99131.38;5012998;28;20174;-67
2022/01/05 01:19:09;;;;;;;8.10;2.70;;;4.30;99.90;;;4.21;77.66;99136.06;5013305;28;20244;-67
2022/01/05 01:21:38;;;;;;;5.28;2.92;;;4.20;77.60;;;4.35;77.36;99139.59;5012853;28;20255;-67
2022/01/05 01:24:07;;;;;;;6.18;2.40;;;4.30;64.80;;;4.41;77.29;99141.44;5013153;28;20206;-66
2022/01/05 01:26:35;;;;;;;4.72;3.00;;;4.40;22.60;;;4.54;76.71;99148.69;5012828;28;20190;-68
2022/01/05 01:29:04;;;;;;;6.65;2.83;;;4.50;1.00;;;4.51;76.23;99139.19;5013145;28;20182;-64
2022/01/05 01:31:33;;;;;;;5.15;2.45;;;4.50;1.00;;;4.51;76.26;99139.19;5012962;28;20209;-67
2022/01/05 01:34:01;;;;;;;6.80;2.80;;;4.50;1.00;;;4.50;76.64;99137.56;5012618;28;20263;-67
2022/01/05 01:36:29;;;;;;;5.85;2.80;;;4.50;1.00;;;4.50;76.58;99139.41;5012763;28;20170;-65
2022/01/05 01:38:59;;;;;;;6.93;3.10;;;4.50;1.00;;;4.54;76.18;99144.16;5012767;28;20212;-66
2022/01/05 01:41:27;;;;;;;9.88;3.20;;;4.50;1.00;;;4.49;76.03;99145.78;5013006;28;20221;-67
2022/01/05 01:43:55;;;;;;;5.38;2.60;;;4.50;1.00;;;4.50;76.07;99148.28;5012817;28;20213;-67
2022/01/05 01:46:26;;;;;;;4.45;2.90;;;4.50;1.00;;;4.44;75.82;99140.22;5012752;28;20178;-67
2022/01/05 01:48:55;;;;;;;3.15;1.98;;;4.50;1.00;;;4.49;76.65;99137.75;5012894;28;20171;-65
2022/01/05 01:51:24;;;;;;;8.23;3.38;;;4.50;1.00;;;4.59;76.13;99140.84;5012999;28;20189;-66
2022/01/05 01:53:52;;;;;;;4.40;2.00;;;4.50;1.00;;;4.60;75.97;99137.94;5012949;28;20268;-67
2022/01/05 01:56:23;;;;;;;6.20;2.58;;;4.50;1.00;;;4.64;75.18;99131.16;5013218;28;20194;-66
2022/01/05 01:58:52;;;;;;;7.40;2.80;;;4.60;1.00;;;4.57;75.24;99124.16;5013582;28;20675;-67
2022/01/05 02:01:21;;;;;;;7.50;2.05;;;4.60;1.00;;;4.49;75.88;99127.88;5015529;28;20337;-65
2022/01/05 02:03:51;;;;;;;11.02;2.50;;;4.60;1.00;;;4.49;75.71;99119.84;5017069;28;20232;-67
2022/01/05 02:06:19;;;;;;;9.45;2.35;;;4.50;1.00;;;4.52;75.54;99106.03;5017198;28;20639;-66
2022/01/05 02:08:48;;;;;;;7.63;1.85;;;4.50;1.00;;;4.67;74.87;99114.66;5017132;28;20526;-65
2022/01/05 02:11:16;;;;;;;13.60;3.08;;;4.60;1.00;;;4.77;74.43;99112.41;5017407;28;20183;-65
2022/01/05 02:13:44;;;;;;;9.48;3.40;;;4.60;99.90;;;4.66;74.50;99109.50;5017084;28;20210;-66
2022/01/05 02:16:19;;;;;;;7.65;2.60;;;4.70;99.90;;;4.68;74.20;99118.19;5016674;28;20674;-66
2022/01/05 02:19:01;;;;;;;9.35;1.77;;;4.70;99.90;;;4.64;74.94;99112.41;5016462;28;20209;-67
2022/01/05 02:21:34;;;;;;;4.90;1.83;;;4.60;99.90;;;4.62;74.47;99125.19;5016351;28;20225;-67
2022/01/05 02:24:04;;;;;;;9.27;2.38;;;4.60;99.90;;;4.55;74.30;99124.34;5016688;28;20301;-66
2022/01/05 02:26:33;;;;;;;8.05;2.03;;;4.60;99.90;;;4.50;74.55;99123.34;5016497;28;20186;-65
2022/01/05 02:29:02;;;;;;;4.63;1.70;;;4.60;99.90;;;4.54;74.66;99125.41;5016341;28;20178;-65
2022/01/05 02:31:30;;;;;;;9.90;2.70;;;4.60;99.90;;;4.55;74.98;99132.38;5016343;28;20285;-65
2022/01/05 02:33:59;;;;;;;4.25;1.92;;;4.60;99.90;;;4.63;74.31;99147.44;5016158;28;20250;-66
2022/01/05 02:36:28;;;;;;;6.53;2.50;;;4.60;99.90;;;4.60;74.55;99143.31;5015993;28;20213;-65
2022/01/05 02:38:58;;;;;;;8.43;3.33;;;4.60;99.90;;;4.67;73.78;99148.66;5016142;28;20605;-66
2022/01/05 02:41:27;;;;;;;9.60;2.47;;;4.60;99.90;;;4.52;74.59;99146.19;5014720;28;20241;-65
2022/01/05 02:43:55;;;;;;;5.85;2.22;;;4.60;99.90;;;4.54;74.62;99143.31;5015846;28;20645;-67
2022/01/05 02:46:24;;;;;;;5.60;2.08;;;4.50;99.90;;;4.61;74.65;99150.31;5015501;28;20248;-67
2022/01/05 02:48:55;;;;;;;5.28;2.22;;;4.60;99.90;;;4.54;74.43;99143.31;5015738;28;20220;-66
2022/01/05 02:51:24;;;;;;;13.80;2.60;;;4.50;99.90;;;4.48;74.41;99131.56;5015946;28;20253;-66
2022/01/05 02:53:52;;;;;;;5.10;2.28;;;4.50;99.90;;;4.50;75.63;99132.19;5016579;28;20616;-66
2022/01/05 02:56:22;;;;;;;5.70;2.80;;;4.50;99.90;;;4.52;75.08;99132.81;5015808;28;20673;-66
2022/01/05 02:58:50;;;;;;;10.23;2.38;;;4.50;99.90;;;4.61;75.12;99139.59;5014130;28;20214;-67
2022/01/05 03:01:18;;;;;;;4.85;1.70;;;4.50;99.90;;;4.68;73.86;99140.44;5015553;28;20655;-66
2022/01/05 03:03:47;;;;;;;5.80;2.15;;;4.60;99.90;;;4.61;74.51;99139.59;5014223;28;20724;-64
2022/01/05 03:06:17;;;;;;;12.98;4.15;;;4.60;99.90;;;4.57;74.88;99145.56;5015437;28;20612;-66
2022/01/05 03:08:46;;;;;;;4.22;1.48;;;4.60;99.90;;;4.67;75.10;99138.78;5015305;28;20186;-64
2022/01/05 03:11:14;;;;;;;7.03;2.70;;;4.60;99.90;;;4.66;74.72;99145.16;5015743;28;20290;-65
2022/01/05 03:13:44;;;;;;;5.03;1.92;;;4.60;99.90;;;4.59;74.06;99141.69;5014619;28;20210;-66
2022/01/05 03:16:12;;;;;;;3.90;1.75;;;4.60;99.90;;;4.58;74.47;99145.38;5015496;28;20631;-67
2022/01/05 03:18:40;;;;;;;10.02;1.95;;;4.60;99.90;;;4.43;74.81;99136.72;5015119;28;20189;-66
2022/01/05 03:21:08;;;;;;;6.80;2.53;;;4.50;99.90;;;4.51;74.54;99128.47;5015255;28;20658;-67
2022/01/05 03:23:37;;;;;;;13.85;3.15;;;4.50;99.90;;;4.62;74.06;99130.53;5016083;28;20209;-66
2022/01/05 03:26:05;;;;;;;5.63;2.13;;;4.60;99.90;;;4.48;74.67;99122.72;5016083;28;20260;-67
2022/01/05 03:28:33;;;;;;;3.10;2.00;;;4.50;99.90;;;4.55;74.22;99119.00;5016041;28;20174;-67
2022/01/05 03:31:03;;;;;;;7.57;3.30;;;4.50;99.90;;;4.52;74.11;99129.28;5014680;28;20194;-65
2022/01/05 03:33:31;;;;;;;5.40;1.67;;;4.50;99.90;;;4.49;74.28;99130.56;5015373;28;20208;-66
2022/01/05 03:36:00;;;;;;;7.30;1.95;;;4.50;99.90;;;4.41;73.79;99122.69;5015230;28;20220;-65
2022/01/05 03:38:29;;;;;;;7.72;2.90;;;4.50;99.90;;;4.36;74.23;99126.00;5015102;28;20261;-65
2022/01/05 03:40:58;;;;;;;7.38;1.70;;;4.50;99.90;;;4.54;74.38;99124.56;5015118;28;20213;-66
2022/01/05 03:43:27;;;;;;;2.13;1.85;;;4.50;99.90;;;4.58;73.29;99131.16;5014872;28;20628;-66
2022/01/05 03:45:55;;;;;;;7.53;2.40;;;4.50;99.90;;;4.46;73.96;99130.13;5014978;28;20280;-66
2022/01/05 03:48:25;;;;;;;10.20;2.08;;;4.50;99.90;;;4.46;73.75;99130.94;5014887;28;20584;-67
2022/01/05 03:50:53;;;;;;;8.45;2.10;;;4.50;99.90;;;4.48;74.06;99134.25;5014899;28;20206;-65
2022/01/05 03:53:22;;;;;;;13.30;2.22;;;4.50;99.90;;;4.47;74.60;99127.25;5014482;28;20213;-66
2022/01/05 03:55:51;;;;;;;8.82;1.80;;;4.50;99.90;;;4.58;73.94;99129.31;5014467;28;20186;-67
2022/01/05 03:58:19;;;;;;;5.68;2.35;;;4.50;99.90;;;4.70;73.76;99143.72;5014821;28;20190;-67
2022/01/05 04:00:50;;;;;;;14.73;2.15;;;4.60;99.90;;;4.72;73.33;99135.47;5014272;28;20217;-67
2022/01/05 04:03:20;;;;;;;7.78;2.10;;;4.70;99.90;;;4.75;72.97;99145.78;5014529;28;20218;-65
2022/01/05 04:05:49;;;;;;;6.63;2.33;;;4.70;99.90;;;4.73;73.49;99135.28;5015738;28;20198;-66
2022/01/05 04:08:18;;;;;;;5.35;1.90;;;4.70;99.90;;;4.82;72.39;99141.25;5013888;28;20198;-65
2022/01/05 04:10:46;;;;;;;13.52;3.08;;;4.70;99.90;;;4.70;72.16;99135.69;5015371;28;20190;-66
2022/01/05 04:13:15;;;;;;;14.90;3.83;;;4.70;99.90;;;4.66;72.42;99147.84;5014906;28;20281;-66
2022/01/05 04:15:44;;;;;;;9.50;2.33;;;4.70;99.90;;;4.52;72.98;99146.19;5014632;28;20178;-67
2022/01/05 04:18:12;;;;;;;9.75;2.95;;;4.60;99.90;;;4.52;73.06;99146.19;5014192;28;20193;-65
2022/01/05 04:20:41;;;;;;;4.93;2.65;;;4.50;99.90;;;4.56;72.91;99146.59;5014013;28;20206;-66
2022/01/05 04:23:11;;;;;;;11.35;2.75;;;4.50;99.90;;;4.54;72.90;99144.16;5013898;28;20214;-66
2022/01/05 04:25:39;;;;;;;7.78;2.50;;;4.50;99.90;;;4.68;73.10;99153.00;5013274;28;20178;-66
2022/01/05 04:28:08;;;;;;;9.68;1.67;;;4.60;99.90;;;4.70;72.57;99154.44;5013937;28;20201;-66
2022/01/05 04:30:36;;;;;;;5.97;2.95;;;4.60;99.90;;;4.62;72.71;99146.63;5013972;28;20608;-67
2022/01/05 04:33:04;;;;;;;13.50;2.30;;;4.60;99.90;;;4.60;72.93;99147.88;5014251;28;20213;-67
2022/01/05 04:35:52;;;;;;;5.50;1.77;;;4.60;99.90;;;4.58;72.69;99153.41;5013857;28;20274;-66
2022/01/05 04:38:22;;;;;;;7.25;2.35;;;4.60;99.90;;;4.61;72.93;99146.81;5014186;28;20201;-66
2022/01/05 04:40:51;;;;;;;4.25;2.45;;;4.60;99.90;;;4.62;72.10;99157.31;5014168;28;20725;-65
2022/01/05 04:43:19;;;;;;;12.93;2.28;;;4.60;99.90;;;4.48;72.55;99161.03;5013891;28;20344;-65
2022/01/05 04:45:47;;;;;;;8.95;2.78;;;4.50;99.90;;;4.54;72.73;99160.22;5013630;28;20201;-64
2022/01/05 04:48:16;;;;;;;6.78;2.65;;;4.50;99.90;;;4.55;72.76;99167.19;5012306;28;20213;-67
2022/01/05 04:50:44;;;;;;;7.55;2.00;;;4.60;99.90;;;4.42;72.50;99153.81;5013620;28;20186;-65
2022/01/05 04:53:13;;;;;;;4.55;1.65;;;4.50;99.90;;;4.48;72.34;99144.97;5013519;28;20218;-66
2022/01/05 04:55:44;;;;;;;6.72;3.38;;;4.50;99.90;;;4.53;72.40;99152.38;5013533;28;20262;-66
2022/01/05 04:58:12;;;;;;;8.55;2.45;;;4.50;99.90;;;4.58;72.10;99172.16;5013640;28;20174;-66
2022/01/05 05:00:40;;;;;;;10.55;2.10;;;4.60;99.90;;;4.48;72.18;99165.56;5013399;28;20260;-65
2022/01/05 05:03:09;;;;;;;7.65;2.05;;;4.50;99.90;;;4.53;72.42;99157.75;5013438;28;20209;-66
2022/01/05 05:05:37;;;;;;;6.15;2.10;;;4.50;99.90;;;4.52;72.08;99150.72;5013383;28;20193;-67
2022/01/05 05:08:06;;;;;;;16.10;3.25;;;4.50;99.90;;;4.59;71.73;99168.47;5013499;28;20182;-67
2022/01/05 05:10:34;;;;;;;18.58;4.05;;;4.50;99.90;;;4.46;72.14;99149.69;5013358;28;20236;-66
2022/01/05 05:13:09;;;;;;;11.25;3.45;;;4.50;99.90;;;4.53;72.30;99142.50;5013423;28;20206;-66
2022/01/05 05:15:38;;;;;;;6.38;2.13;;;4.50;99.90;;;4.62;72.19;99135.91;5013024;28;20181;-67
2022/01/05 05:18:07;;;;;;;5.53;2.00;;;4.50;99.90;;;4.55;71.33;99140.41;5013288;28;20178;-67
2022/01/05 05:20:36;;;;;;;7.13;2.58;;;4.60;99.90;;;4.55;71.85;99144.97;5013170;28;20256;-66
2022/01/05 05:23:04;;;;;;;6.45;2.75;;;4.60;99.90;;;4.52;71.63;99146.19;5013122;28;20198;-65
2022/01/05 05:25:33;;;;;;;5.35;1.75;;;4.60;99.90;;;4.46;71.95;99141.66;5012993;28;20224;-67
2022/01/05 05:28:01;;;;;;;5.70;2.13;;;4.50;99.90;;;4.40;71.85;99137.13;5012998;28;20534;-67
2022/01/05 05:30:36;;;;;;;5.40;2.20;;;4.50;99.90;;;4.34;72.61;99135.28;5012935;28;20182;-67
2022/01/05 05:33:05;;;;;;;6.30;2.10;;;4.40;99.90;;;4.29;72.84;99135.06;5013192;28;20606;-65
2022/01/05 05:35:33;;;;;;;6.28;2.03;;;4.30;99.90;;;4.30;72.89;99142.06;5013147;28;20595;-66
2022/01/05 05:38:02;;;;;;;5.43;2.88;;;4.30;99.90;;;4.31;73.04;99149.06;5013212;28;20197;-67
2022/01/05 05:40:31;;;;;;;7.22;1.77;;;4.40;99.90;;;4.25;73.11;99152.56;5013026;28;20256;-67
2022/01/05 05:42:59;;;;;;;9.23;2.63;;;4.30;99.90;;;4.17;73.28;99142.03;5012987;28;20205;-67
2022/01/05 05:45:28;;;;;;;8.50;2.05;;;4.20;99.90;;;4.16;73.34;99143.91;5013186;28;20190;-67
2022/01/05 05:47:58;;;;;;;3.80;1.83;;;4.20;99.90;;;4.10;73.77;99147.38;5013163;28;20586;-67
2022/01/05 05:50:26;;;;;;;7.68;2.25;;;4.20;99.90;;;4.06;73.80;99156.84;5012964;28;20570;-67
2022/01/05 05:52:55;;;;;;;5.55;1.98;;;4.10;99.90;;;4.04;73.58;99158.91;5012964;28;20653;-66
2022/01/05 05:55:24;;;;;;;5.57;2.05;;;4.10;99.90;;;3.94;73.89;99159.28;5012860;28;20182;-66
2022/01/05 05:57:52;;;;;;;5.50;1.90;;;4.00;99.90;;;3.82;74.00;99150.22;5015547;28;20678;-66
2022/01/05 06:00:21;;;;;;;9.30;2.75;;;3.90;99.90;;;3.84;74.57;99150.00;5013017;28;20587;-65
2022/01/05 06:02:50;;;;;;;7.30;2.03;;;3.90;99.90;;;3.82;74.41;99155.56;5021082;28;20209;-66
2022/01/05 06:05:20;;;;;;;12.18;2.15;;;3.90;99.90;;;3.81;74.58;99161.09;5032472;28;20198;-67
2022/01/05 06:07:48;;;;;;;8.95;2.60;;;3.80;99.90;;;3.77;74.56;99171.38;5032878;28;20193;-67
2022/01/05 06:10:16;;;;;;;7.18;2.97;;;3.80;99.90;;;3.56;75.28;99159.97;5032454;28;20635;-67
2022/01/05 06:12:45;;;;;;;5.10;2.20;;;3.70;99.90;;;3.58;75.35;99158.75;5032162;28;20263;-67
2022/01/05 06:15:13;;;;;;;8.90;2.55;;;3.70;99.90;;;3.76;75.14;99161.72;5032221;28;20192;-67
2022/01/05 06:17:41;;;;;;;4.13;2.30;;;3.70;99.90;;;3.67;75.23;99148.69;5032321;28;20185;-66
2022/01/05 06:20:12;;;;;;;9.00;2.42;;;3.70;99.90;;;3.72;74.83;99152.44;5032084;28;20197;-66
2022/01/05 06:22:43;;;;;;;16.17;3.30;;;3.70;99.90;;;3.69;74.86;99150.13;5032060;28;20221;-66
2022/01/05 06:25:13;;;;;;;12.63;2.33;;;3.70;99.90;;;3.77;74.95;99163.38;5032307;28;20174;-66
2022/01/05 06:27:42;;;;;;;11.95;2.85;;;3.70;99.90;;;3.81;75.58;99164.59;5032227;28;20194;-68
2022/01/05 06:30:11;;;;;;;14.30;3.35;;;3.80;99.90;;;3.89;74.63;99167.09;5032330;28;20189;-66
2022/01/05 06:32:46;;;;;;;12.55;2.80;;;3.90;99.90;;;3.71;74.98;99174.84;5032314;28;20213;-65
2022/01/05 06:35:15;;;;;;;8.70;2.78;;;3.80;99.90;;;3.84;74.57;99174.06;5032570;28;20533;-66
2022/01/05 06:37:45;;;;;;;12.13;3.08;;;3.80;99.90;;;3.84;75.12;99176.75;5032940;28;20197;-65
2022/01/05 06:40:13;;;;;;;5.13;2.05;;;3.80;99.90;;;3.67;74.95;99189.66;5033299;28;20193;-65
2022/01/05 06:42:42;;;;;;;9.35;2.72;;;3.70;99.90;;;3.62;75.27;99192.09;5032979;28;20213;-65
2022/01/05 06:45:11;;;;;;;8.23;2.70;;;3.70;99.90;;;3.60;75.22;99196.81;5033248;28;20193;-64
2022/01/05 06:47:39;;;;;;;9.32;3.25;;;3.70;99.90;;;3.55;75.35;99199.25;5033736;28;20216;-65
2022/01/05 06:50:09;;;;;;;5.97;2.55;;;3.60;99.90;;;3.50;75.26;99199.84;5036898;28;20190;-65
2022/01/05 06:52:39;;;;;;;16.33;2.83;;;3.60;99.90;;;3.46;75.76;99209.28;5036600;28;20213;-66
2022/01/05 06:55:10;;;;;;;9.65;3.60;;;3.50;99.90;;;3.46;75.92;99205.78;5036368;28;20170;-65
2022/01/05 06:57:41;;;;;;;11.07;2.50;;;3.50;99.90;;;3.45;75.65;99207.63;5036658;28;20182;-66
2022/01/05 07:00:12;;;;;;;6.47;2.20;;;3.50;99.90;;;3.47;75.89;99210.13;5035991;28;20660;-67
2022/01/05 07:02:41;;;;;;;6.45;2.38;;;3.50;99.90;;;3.49;75.40;99214.25;5035760;28;20747;-67
2022/01/05 07:05:10;;;;;;;6.85;2.83;;;3.50;99.90;;;3.39;75.53;99221.78;5035950;28;20189;-66
2022/01/05 07:07:39;;;;;;;12.18;4.22;;;3.50;99.90;;;3.40;75.24;99215.41;5035822;28;20192;-65
2022/01/05 07:10:11;;;;;;;4.82;2.28;;;3.50;99.90;;;3.42;75.25;99234.78;5035597;28;20217;-66
2022/01/05 07:12:44;;;;;;;9.38;2.30;;;3.50;99.90;;;3.37;75.47;99225.69;5035797;28;20271;-65
2022/01/05 07:15:12;;;;;;;5.68;2.10;;;3.40;99.90;;;3.35;75.50;99233.06;5035332;28;20194;-66
2022/01/05 07:17:41;;;;;;;6.72;2.17;;;3.40;99.90;;;3.49;74.59;99245.50;5035615;28;20217;-65
2022/01/05 07:20:11;;;;;;;15.40;2.95;;;3.50;99.90;;;3.52;74.62;99246.97;5035697;28;20174;-66
2022/01/05 07:22:39;;;;;;;5.30;2.03;;;3.50;99.90;;;3.49;74.56;99240.16;5036068;28;20292;-65
2022/01/05 07:25:10;;;;;;;5.97;2.30;;;3.50;99.90;;;3.57;74.49;99231.16;5036906;28;20251;-65
2022/01/05 07:27:39;;;;;;;8.65;2.75;;;3.50;99.90;;;3.47;74.54;99236.88;5037562;28;20614;-66
2022/01/05 07:30:09;;;;;;;6.30;2.53;;;3.50;99.90;;;3.51;74.51;99246.13;5037147;28;20185;-66
2022/01/05 07:32:39;;;;;;;11.23;4.28;;;3.50;99.90;;;3.48;74.95;99246.53;5036535;28;20690;-66
2022/01/05 07:35:09;;;;;;;7.65;3.33;;;3.50;99.90;;;3.51;74.46;99254.16;5035323;28;20177;-65
2022/01/05 07:37:38;;;;;;;14.57;4.53;;;3.50;99.90;;;3.60;73.75;99241.44;5035225;28;20243;-64
2022/01/05 07:40:08;;;;;;;8.20;2.72;;;3.60;99.90;;;3.55;73.77;99238.53;5035608;28;20231;-65
2022/01/05 07:42:38;;;;;;;10.02;2.70;;;3.60;99.90;;;3.56;73.64;99240.19;5035469;28;20626;-66
2022/01/05 07:45:10;;;;;;;9.20;2.55;;;3.60;99.90;;;3.52;73.68;99239.78;5036037;28;20260;-65
2022/01/05 07:47:39;;;;;;;9.52;2.45;;;3.60;99.90;;;3.44;73.68;99242.59;5036943;28;20605;-66
2022/01/05 07:50:14;;;;;;;6.05;2.40;;;3.50;99.90;;;3.40;73.84;99241.34;5035570;28;20212;-65
2022/01/05 07:52:44;;;;;;;14.97;2.80;;;3.50;99.90;;;3.36;73.83;99240.06;5034148;28;20445;-66
2022/01/05 07:55:14;;;;;;;10.18;2.67;;;3.50;99.90;;;3.45;73.49;99246.91;5035343;28;20754;-65
2022/01/05 07:57:43;;;;;;;7.45;1.63;;;3.50;99.90;;;3.42;72.93;99244.66;5035010;28;20288;-65
2022/01/05 08:00:13;;;;;;;4.00;2.83;;;3.50;99.90;;;3.48;73.39;99249.22;5035013;28;20268;-63
2022/01/05 08:02:42;;;;;;;6.72;2.58;;;3.50;99.90;;;3.48;72.67;99243.88;5034880;28;20232;-65
2022/01/05 08:05:10;;;;;;;10.68;2.72;;;3.50;99.90;;;3.50;72.82;99241.81;5034956;28;20190;-65
2022/01/05 08:07:39;;;;;;;12.10;2.55;;;3.50;99.90;;;3.47;72.67;99243.03;5034902;28;20599;-65
2022/01/05 08:10:08;;;;;;;10.15;2.60;;;3.50;99.90;;;3.49;72.45;99240.97;5034863;28;20189;-64
2022/01/05 08:12:41;;;;;;;6.05;2.40;;;3.50;99.90;;;3.50;72.00;99242.63;5035529;28;20262;-66
2022/01/05 08:15:12;;;;;;;7.82;3.20;;;3.50;99.90;;;3.46;72.08;99251.25;5035936;28;20592;-65
2022/01/05 08:17:43;;;;;;;8.02;3.50;;;3.50;99.90;;;3.43;72.50;99246.31;5035143;28;20231;-65
2022/01/05 08:20:13;;;;;;;11.75;2.63;;;3.50;99.90;;;3.43;71.98;99251.66;5035402;28;20174;-65
2022/01/05 08:22:43;;;;;;;11.48;3.15;;;3.50;99.90;;;3.44;71.62;99253.28;5035227;28;20217;-64
2022/01/05 08:25:17;;;;;;;11.82;2.60;;;3.50;99.90;;;3.46;72.07;99259.28;5035577;28;20173;-68
2022/01/05 08:27:47;;;;;;;7.03;3.88;;;3.50;99.90;;;3.44;71.61;99255.94;5036137;28;20188;-64
2022/01/05 08:30:20;;;;;;;13.77;3.20;;;3.50;99.90;;;3.35;71.97;99249.94;5035670;28;20642;-66
2022/01/05 08:32:57;;;;;;;14.55;3.65;;;3.40;99.90;;;3.44;71.76;99255.94;5035064;28;20232;-64
2022/01/05 08:35:26;;;;;;;10.57;3.75;;;3.40;99.90;;;3.32;71.91;99255.69;5035481;28;20201;-66
2022/01/05 08:37:55;;;;;;;9.82;3.40;;;3.40;99.90;;;3.36;71.98;99261.47;5035423;28;20658;-65
2022/01/05 08:40:25;;;;;;;9.48;2.83;;;3.40;99.90;;;3.42;71.70;99266.03;5034435;28;20703;-65
2022/01/05 08:42:57;;;;;;;6.68;2.38;;;3.40;99.90;;;3.46;70.80;99259.28;5035316;28;20217;-66
2022/01/05 08:45:27;;;;;;;13.00;2.78;;;3.50;99.90;;;3.48;71.10;99257.25;5035420;28;20182;-68
2022/01/05 08:47:59;;;;;;;9.27;2.35;;;3.50;99.90;;;3.57;70.14;99265.94;5049994;28;20267;-67
2022/01/05 08:50:31;;;;;;;5.15;2.22;;;3.60;99.90;;;3.72;69.97;99272.00;5033975;28;20177;-66
2022/01/05 08:53:01;;;;;;;6.13;2.67;;;3.60;99.90;;;3.72;69.60;99275.50;5048162;22;20268;-70
2022/01/05 08:55:36;;;;;;;8.18;3.95;;;3.70;99.90;;;4.04;69.19;99265.13;5032277;28;20193;-68
2022/01/05 08:58:06;;;;;;;8.10;3.22;;;3.90;99.90;;;4.04;68.92;99270.47;5032885;28;20189;-69
2022/01/05 09:00:37;;;;;;;5.55;2.60;;;4.00;99.90;;;4.06;68.38;99274.63;5027282;28;20282;-69
2022/01/05 09:03:07;;;;;;;10.55;3.55;;;4.00;99.90;;;4.12;67.75;99267.63;5006939;28;20229;-69
2022/01/05 09:05:36;;;;;;;14.65;3.35;;;4.10;99.90;;;4.10;67.78;99267.00;4996229;28;20190;-69
2022/01/05 09:08:05;;;;;;;8.65;2.60;;;4.10;99.90;;;4.08;67.56;99271.72;4994454;28;20610;-70
2022/01/05 09:10:36;;;;;;;8.52;2.67;;;4.10;99.90;;;4.09;67.58;99268.03;4993240;28;20194;-70
2022/01/05 09:13:04;;;;;;;7.75;3.50;;;4.10;99.90;;;4.28;67.61;99268.09;4993325;28;20285;-68
2022/01/05 09:15:34;;;;;;;12.18;3.78;;;4.20;99.90;;;4.31;67.02;99266.88;4993616;28;20195;-69
2022/01/05 09:18:04;;;;;;;12.25;4.25;;;4.20;99.90;;;4.38;67.02;99263.19;4994199;28;20240;-67
2022/01/05 09:20:32;;;;;;;16.13;3.30;;;4.30;99.90;;;4.47;66.36;99271.88;4993854;28;20195;-69
2022/01/05 09:23:02;;;;;;;8.68;2.95;;;4.40;99.90;;;4.50;66.19;99271.47;4993556;28;20280;-71
2022/01/05 09:25:30;;;;;;;14.18;3.47;;;4.50;99.90;;;4.51;65.21;99281.16;4994055;28;20183;-70
2022/01/05 09:27:59;;;;;;;11.60;2.75;;;4.50;99.90;;;4.65;65.34;99272.09;4995129;28;20217;-69
2022/01/05 09:30:27;;;;;;;6.30;2.50;;;4.50;99.90;;;4.89;64.77;99285.97;4995547;28;20183;-70
2022/01/05 09:32:57;;;;;;;9.93;3.20;;;4.70;99.90;;;4.84;64.95;99281.22;4996465;28;20297;-69
2022/01/05 09:35:28;;;;;;;4.45;3.05;;;4.70;99.90;;;4.69;64.11;99276.06;4998558;28;20190;-70
2022/01/05 09:38:09;;;;;;;5.20;2.17;;;4.70;99.90;;;4.69;64.06;99283.28;5009457;28;20190;-70
2022/01/05 09:43:25;;;;;;;10.13;2.95;;;4.70;99.90;;;4.91;63.60;99283.91;5010466;28;20268;-70
2022/01/05 09:46:05;;;;;;;9.93;2.15;;;4.80;99.90;;;5.00;63.17;99283.50;5009719;28;20203;-69
2022/01/05 09:49:09;;;;;;;10.57;3.00;;;4.90;99.90;;;5.13;62.31;99282.69;5009414;28;20182;-71
2022/01/05 09:51:42;;;;;;;13.10;2.67;;;5.00;99.90;;;5.08;62.79;99285.16;4990357;28;20191;-70
2022/01/05 09:54:12;;;;;;;12.50;4.00;;;5.00;99.90;;;4.91;63.19;99289.25;5001847;28;20329;-69
2022/01/05 09:56:58;;;;;;;7.63;2.70;;;4.90;99.90;;;4.94;62.95;99286.19;4999438;28;20187;-68
2022/01/05 09:59:28;;;;;;;7.85;2.80;;;4.90;99.90;;;4.78;63.15;99280.19;4999996;28;20191;-69
2022/01/05 10:01:57;;;;;;;11.85;3.45;;;4.80;99.90;;;4.75;62.69;99296.66;4999715;28;20199;-69
2022/01/05 10:04:26;;;;;;;7.78;3.45;;;4.70;99.90;;;4.87;63.33;99301.44;4997966;28;20254;-70
2022/01/05 10:06:56;;;;;;;10.75;3.75;;;4.80;99.90;;;4.94;62.58;99303.06;4997420;28;20195;-71
2022/01/05 10:09:24;;;;;;;7.07;3.00;;;4.90;99.90;;;4.95;62.36;99303.91;4995667;28;20187;-69
2022/01/05 10:11:53;;;;;;;14.57;3.58;;;4.90;99.90;;;5.09;62.15;99303.72;4979220;28;20205;-69
2022/01/05 10:14:21;;;;;;;13.18;3.63;;;5.00;99.90;;;5.11;62.43;99306.19;4997453;28;20202;-70
2022/01/05 10:17:06;;;;;;;7.63;2.90;;;5.00;99.90;;;5.14;62.24;99300.41;4997939;28;20194;-69
2022/01/05 10:19:36;;;;;;;4.55;2.92;;;5.10;99.90;;;4.90;62.55;99309.06;4997856;28;20209;-68
2022/01/05 10:22:32;;;;;;;5.53;2.88;;;5.00;99.90;;;4.87;62.99;99296.06;4997802;28;20199;-71
2022/01/05 10:25:03;;;;;;;10.15;4.53;;;4.90;99.90;;;4.84;62.62;99300.00;5001111;28;20191;-69
2022/01/05 10:27:31;;;;;;;13.80;2.83;;;4.80;99.90;;;4.78;63.62;99295.44;4996448;28;20194;-69
2022/01/05 10:30:05;;;;;;;13.00;3.20;;;4.80;99.90;;;4.79;62.88;99297.91;4996410;28;20223;-70
2022/01/05 10:32:37;;;;;;;6.88;2.92;;;4.70;99.90;;;4.91;63.14;99299.97;4996389;28;20201;-70
2022/01/05 10:35:12;;;;;;;8.43;3.35;;;4.80;99.90;;;4.98;62.45;99303.50;4978830;28;20195;-69
2022/01/05 10:37:45;;;;;;;8.45;3.17;;;4.90;99.90;;;4.94;63.08;99294.22;4978696;28;20561;-71
2022/01/05 10:40:19;;;;;;;6.15;2.85;;;4.80;99.90;;;5.02;62.72;99294.84;4996266;28;20179;-69
2022/01/05 10:42:51;;;;;;;12.75;6.32;;;5.00;99.90;;;4.97;62.63;99300.00;4996035;28;20216;-70
2022/01/05 10:45:23;;;;;;;13.30;3.42;;;4.90;99.90;;;5.01;62.47;99303.09;4995983;28;20250;-68
2022/01/05 10:48:07;;;;;;;12.32;3.05;;;5.00;99.90;;;4.89;62.47;99294.81;4996115;28;20193;-71